Melbourne International Airport
KMLB : rendu visible

Aérodrome :











RETROUVEZ-NOUS SUR...

 
LOGIN :

S'inscrire | Disclaimer

   EN    FR    IT 

 









Légende :    VFR   VFR Marginal   IFR   IFR Intensif   IFR Très Intensif
Visi : 
Plafond : 
>= 8 km
>= 3000ft
5 à 8 km
1000 à 3000 ft
1500m à 5 km
500 à 1000 ft
800 à 1500m
200 à 500 ft
< 800m
< 200 ft
Symboles :   Orages  Brouillard  Fortes neiges  Fortes précipitations  Vent > 20 kt






- Altitude de l'aérodrome : 33 ft
- Code IATA : MLB


KMLB - Melbourne International

DERNIER METAR :
  • 121053Z 00000KT 10SM OVC060 19/19 A2998 RMK AO2 SLP152 T01940189

METARs EXPIRÉS :
  • 120953Z AUTO 29006KT 10SM BKN060 18/18 A2997 RMK AO2 SLP149 T01780178
  • 120853Z AUTO 00000KT 10SM CLR 18/18 A2997 RMK AO2 SLP149 T01830178 58025

TAF KMLB
Valide du 12 à 08h jusqu'au 13 à 06h UTC


120758Z 1208/1306 27003KT 6SM BR MIFG FEW030
FM121500 25007KT P6SM SCT030 BKN250
FM130100 31010KT P6SM SCT030 BKN070



MET'MAP, la Météo Aéronautique d'un coup d'oeil ! - Copyright ORBIFLY Décembre 2007 - Disclaimer

ORBIFLY MET'MAP TEAM :

Programmation & Développement : Alexandra Zaïnal
Conception & Développement : Baudouin d'Aumeries
Co-Programmation & Développement : Marc-Olivier Méhu
Soutien technique & logistique : Manuel Goepfert

Contact : metmap@orbifly.com




SOURCES & CREDITS :

   NOAA       Earth
Advisory